createdAt,value
2022-12-07T00:00:10.885Z,4.52
2022-12-07T00:02:10.934Z,4.52
2022-12-07T00:03:10.879Z,4.52
2022-12-07T00:04:10.835Z,4.50
2022-12-07T00:05:10.823Z,4.48
2022-12-07T00:06:10.810Z,4.44
2022-12-07T00:07:10.808Z,4.41
2022-12-07T00:08:10.844Z,4.37
2022-12-07T00:09:10.771Z,4.40
2022-12-07T00:10:10.760Z,4.40
2022-12-07T00:11:10.747Z,4.42
2022-12-07T00:12:10.736Z,4.41
2022-12-07T00:13:10.720Z,4.37
2022-12-07T00:14:10.707Z,4.42
2022-12-07T00:15:10.692Z,4.42
2022-12-07T00:16:10.753Z,4.42
2022-12-07T00:17:10.693Z,4.42
2022-12-07T00:18:10.657Z,4.44
2022-12-07T00:19:10.646Z,4.47
2022-12-07T00:20:10.632Z,4.48
2022-12-07T00:21:10.617Z,4.52
2022-12-07T00:22:10.605Z,4.55
2022-12-07T00:23:10.592Z,4.55
2022-12-07T00:24:10.585Z,4.54
2022-12-07T00:25:10.565Z,4.54
2022-12-07T00:26:10.555Z,4.55
2022-12-07T00:27:10.540Z,4.48
2022-12-07T00:28:10.528Z,4.54
2022-12-07T00:29:10.514Z,4.51
2022-12-07T00:30:10.503Z,4.50
2022-12-07T00:31:10.490Z,4.52
2022-12-07T00:32:10.583Z,4.55
2022-12-07T00:33:10.487Z,4.52
2022-12-07T00:34:10.453Z,4.54
2022-12-07T00:35:10.439Z,4.52
2022-12-07T00:36:10.432Z,4.55
2022-12-07T00:37:10.413Z,4.50
2022-12-07T00:38:10.402Z,4.41
2022-12-07T00:39:10.388Z,4.45
2022-12-07T00:40:10.376Z,4.41
2022-12-07T00:41:10.361Z,4.41
2022-12-07T00:42:10.350Z,4.37
2022-12-07T00:43:10.335Z,4.37
2022-12-07T00:44:10.323Z,4.37
2022-12-07T00:45:10.311Z,4.36
2022-12-07T00:46:10.487Z,4.34
2022-12-07T00:47:10.282Z,4.32
2022-12-07T00:48:10.269Z,4.30
2022-12-07T00:49:10.279Z,4.29
2022-12-07T00:50:10.245Z,4.33
2022-12-07T00:51:10.231Z,4.29
2022-12-07T00:52:10.219Z,4.29
2022-12-07T00:53:10.203Z,4.32
2022-12-07T00:54:10.191Z,4.34
2022-12-07T00:55:10.178Z,4.36
2022-12-07T00:56:10.165Z,4.34
2022-12-07T00:57:10.153Z,4.33
2022-12-07T00:58:10.142Z,4.26
2022-12-07T00:59:10.125Z,4.29
2022-12-07T01:00:10.115Z,4.32
2022-12-07T01:01:10.201Z,4.30
2022-12-07T01:02:10.090Z,4.29
2022-12-07T01:03:10.149Z,4.29
2022-12-07T01:04:10.063Z,4.23
2022-12-07T01:05:10.077Z,4.32
2022-12-07T01:06:10.037Z,4.36
2022-12-07T01:07:10.026Z,4.32
2022-12-07T01:08:10.097Z,4.34
2022-12-07T01:09:09.998Z,4.33
2022-12-07T01:10:09.986Z,4.32
2022-12-07T01:11:09.974Z,4.33
2022-12-07T01:12:09.961Z,4.32
2022-12-07T01:13:09.948Z,4.36
2022-12-07T01:14:09.936Z,4.36
2022-12-07T01:15:09.922Z,4.36
2022-12-07T01:16:10.034Z,4.33
2022-12-07T01:17:10.013Z,4.32
2022-12-07T01:18:09.889Z,4.33
2022-12-07T01:19:09.871Z,4.36
2022-12-07T01:20:09.860Z,4.32
2022-12-07T01:21:09.871Z,4.27
2022-12-07T01:22:09.838Z,4.26
2022-12-07T01:23:09.823Z,4.30
2022-12-07T01:24:09.810Z,4.33
2022-12-07T01:25:09.800Z,4.26
2022-12-07T01:26:09.783Z,4.26
2022-12-07T01:27:09.769Z,4.23
2022-12-07T01:28:09.758Z,4.26
2022-12-07T01:29:09.744Z,4.22
2022-12-07T01:30:09.732Z,4.23
2022-12-07T01:31:09.751Z,4.26
2022-12-07T01:32:09.708Z,4.27
2022-12-07T01:33:09.706Z,4.26
2022-12-07T01:34:09.682Z,4.23
2022-12-07T01:35:09.668Z,4.30
2022-12-07T01:36:09.657Z,4.29
2022-12-07T01:37:09.665Z,4.20
2022-12-07T01:38:09.631Z,4.26
2022-12-07T01:39:09.620Z,4.29
2022-12-07T01:40:09.605Z,4.27
2022-12-07T01:41:09.592Z,4.23
2022-12-07T01:42:09.581Z,4.24
2022-12-07T01:43:09.567Z,4.23
2022-12-07T01:44:09.557Z,4.27
2022-12-07T01:45:09.543Z,4.26
2022-12-07T01:46:09.561Z,4.20
2022-12-07T01:47:09.514Z,4.16
2022-12-07T01:48:09.505Z,4.22
2022-12-07T01:49:09.489Z,4.18
2022-12-07T01:50:09.478Z,4.18
2022-12-07T01:51:09.464Z,4.18
2022-12-07T01:52:09.453Z,4.18
2022-12-07T01:53:09.461Z,4.20
2022-12-07T01:54:09.425Z,4.22
2022-12-07T01:55:09.416Z,4.15
2022-12-07T01:56:09.403Z,4.23
2022-12-07T01:57:09.388Z,4.22
2022-12-07T01:58:09.376Z,4.18
2022-12-07T01:59:09.362Z,4.22
2022-12-07T02:00:09.380Z,4.22
2022-12-07T02:01:09.374Z,4.18
2022-12-07T02:02:09.390Z,4.23
2022-12-07T02:03:09.421Z,4.22
2022-12-07T02:04:09.299Z,4.18
2022-12-07T02:05:09.283Z,4.24
2022-12-07T02:06:09.290Z,4.27
2022-12-07T02:07:09.273Z,4.24
2022-12-07T02:08:09.350Z,4.27
2022-12-07T02:09:09.278Z,4.23
2022-12-07T02:10:09.222Z,4.27
2022-12-07T02:11:09.212Z,4.33
2022-12-07T02:12:09.197Z,4.32
2022-12-07T02:13:09.182Z,4.30
2022-12-07T02:14:09.171Z,4.32
2022-12-07T02:15:09.156Z,4.33
2022-12-07T02:16:09.230Z,4.29
2022-12-07T02:17:09.131Z,4.33
2022-12-07T02:18:09.120Z,4.33
2022-12-07T02:19:09.106Z,4.34
2022-12-07T02:20:09.094Z,4.36
2022-12-07T02:21:09.083Z,4.34
2022-12-07T02:22:09.069Z,4.36
2022-12-07T02:23:09.055Z,4.33
2022-12-07T02:24:09.044Z,4.24
2022-12-07T02:25:09.056Z,4.26
2022-12-07T02:26:09.018Z,4.30
2022-12-07T02:27:09.005Z,4.26
2022-12-07T02:28:08.992Z,4.22
2022-12-07T02:29:08.977Z,4.26
2022-12-07T02:30:08.964Z,4.32
2022-12-07T02:31:09.060Z,4.34
2022-12-07T02:32:08.943Z,4.34
2022-12-07T02:33:08.922Z,4.34
2022-12-07T02:34:08.950Z,4.40
2022-12-07T02:35:08.898Z,4.36
2022-12-07T02:36:08.883Z,4.47
2022-12-07T02:37:08.869Z,4.42
2022-12-07T02:38:08.858Z,4.48
2022-12-07T02:39:08.844Z,4.41
2022-12-07T02:40:08.831Z,4.50
2022-12-07T02:41:08.844Z,4.54
2022-12-07T02:42:08.804Z,4.47
2022-12-07T02:43:08.792Z,4.50
2022-12-07T02:44:08.779Z,4.36
2022-12-07T02:45:08.766Z,4.41
2022-12-07T02:46:08.780Z,4.44
2022-12-07T02:47:08.737Z,4.47
2022-12-07T02:48:08.728Z,4.42
2022-12-07T02:49:08.710Z,4.50
2022-12-07T02:50:08.699Z,4.58
2022-12-07T02:51:08.683Z,4.59
2022-12-07T02:52:08.670Z,4.60
2022-12-07T02:53:08.657Z,4.52
2022-12-07T02:54:08.644Z,4.50
2022-12-07T02:55:08.635Z,4.55
2022-12-07T02:56:08.619Z,4.52
2022-12-07T02:57:08.628Z,4.55
2022-12-07T02:58:08.595Z,4.50
2022-12-07T02:59:08.578Z,4.55
2022-12-07T03:00:08.569Z,4.62
2022-12-07T03:01:08.645Z,4.65
2022-12-07T03:02:08.594Z,4.63
2022-12-07T03:03:08.655Z,4.55
2022-12-07T03:04:08.515Z,4.50
2022-12-07T03:05:08.500Z,4.50
2022-12-07T03:06:08.487Z,4.44
2022-12-07T03:07:08.472Z,4.44
2022-12-07T03:08:08.568Z,4.48
2022-12-07T03:09:08.447Z,4.47
2022-12-07T03:10:08.435Z,4.45
2022-12-07T03:11:08.424Z,4.48
2022-12-07T03:12:08.418Z,4.48
2022-12-07T03:13:08.422Z,4.55
2022-12-07T03:14:08.384Z,4.50
2022-12-07T03:15:08.372Z,4.48
2022-12-07T03:16:08.425Z,4.52
2022-12-07T03:17:08.348Z,4.52
2022-12-07T03:18:08.334Z,4.51
2022-12-07T03:19:08.322Z,4.47
2022-12-07T03:20:08.307Z,4.42
2022-12-07T03:21:08.295Z,4.47
2022-12-07T03:22:08.282Z,4.48
2022-12-07T03:23:08.270Z,4.50
2022-12-07T03:24:08.256Z,4.59
2022-12-07T03:25:08.247Z,4.55
2022-12-07T03:26:08.231Z,4.52
2022-12-07T03:27:08.219Z,4.54
2022-12-07T03:28:08.208Z,4.50
2022-12-07T03:29:08.220Z,4.47
2022-12-07T03:30:08.178Z,4.48
2022-12-07T03:31:08.259Z,4.48
2022-12-07T03:32:08.166Z,4.47
2022-12-07T03:33:08.149Z,4.50
2022-12-07T03:34:08.129Z,4.48
2022-12-07T03:35:08.117Z,4.51
2022-12-07T03:36:08.105Z,4.48
2022-12-07T03:37:08.092Z,4.50
2022-12-07T03:38:08.080Z,4.51
2022-12-07T03:39:08.068Z,4.44
2022-12-07T03:40:08.061Z,4.48
2022-12-07T03:41:08.042Z,4.54
2022-12-07T03:42:08.027Z,4.55
2022-12-07T03:43:08.017Z,4.54
2022-12-07T03:44:08.002Z,4.54
2022-12-07T03:45:08.017Z,4.60
2022-12-07T03:46:08.016Z,4.62
2022-12-07T03:47:07.970Z,4.62
2022-12-07T03:48:07.954Z,4.59
2022-12-07T03:49:07.941Z,4.65
2022-12-07T03:50:07.927Z,4.65
2022-12-07T03:51:07.912Z,4.66
2022-12-07T03:52:07.898Z,4.65
2022-12-07T03:53:07.889Z,4.70
2022-12-07T03:54:07.881Z,4.72
2022-12-07T03:55:07.873Z,4.72
2022-12-07T03:56:07.849Z,4.67
2022-12-07T03:57:07.839Z,4.62
2022-12-07T03:58:07.824Z,4.59
2022-12-07T03:59:07.813Z,4.62
2022-12-07T04:00:07.798Z,4.66
2022-12-07T04:01:07.814Z,4.67
2022-12-07T04:02:07.865Z,4.67
2022-12-07T04:03:07.868Z,4.66
2022-12-07T04:04:07.749Z,4.67
2022-12-07T04:05:07.735Z,4.62
2022-12-07T04:06:07.726Z,4.63
2022-12-07T04:07:07.717Z,4.62
2022-12-07T04:08:07.756Z,4.59
2022-12-07T04:09:07.686Z,4.54
2022-12-07T04:10:07.671Z,4.58
2022-12-07T04:11:07.663Z,4.63
2022-12-07T04:12:07.648Z,4.62
2022-12-07T04:13:07.633Z,4.65
2022-12-07T04:14:07.621Z,4.65
2022-12-07T04:15:07.608Z,4.66
2022-12-07T04:16:07.634Z,4.69
2022-12-07T04:17:07.608Z,4.65
2022-12-07T04:18:07.569Z,4.67
2022-12-07T04:19:07.558Z,4.63
2022-12-07T04:20:07.544Z,4.62
2022-12-07T04:21:07.537Z,4.65
2022-12-07T04:22:07.518Z,4.60
2022-12-07T04:23:07.509Z,4.63
2022-12-07T04:24:07.495Z,4.62
2022-12-07T04:25:07.484Z,4.62
2022-12-07T04:26:07.468Z,4.62
2022-12-07T04:27:07.458Z,4.65
2022-12-07T04:28:07.443Z,4.63
2022-12-07T04:29:08.017Z,4.70
2022-12-07T04:30:07.418Z,4.63
2022-12-07T04:31:07.462Z,4.60
2022-12-07T04:32:07.391Z,4.62
2022-12-07T04:33:07.408Z,4.62
2022-12-07T04:34:07.370Z,4.66
2022-12-07T04:35:07.355Z,4.66
2022-12-07T04:36:07.346Z,4.66
2022-12-07T04:37:07.330Z,4.67
2022-12-07T04:38:07.320Z,4.66
2022-12-07T04:39:07.304Z,4.66
2022-12-07T04:40:07.292Z,4.67
2022-12-07T04:41:07.282Z,4.70
2022-12-07T04:42:07.266Z,4.77
2022-12-07T04:43:07.256Z,4.77
2022-12-07T04:44:07.240Z,4.73
2022-12-07T04:45:07.228Z,4.75
2022-12-07T04:46:07.220Z,4.78
2022-12-07T04:47:07.309Z,4.81
2022-12-07T04:48:07.193Z,4.83
2022-12-07T04:49:07.201Z,4.83
2022-12-07T04:50:07.168Z,4.87
2022-12-07T04:51:07.153Z,4.84
2022-12-07T04:52:07.140Z,4.84
2022-12-07T04:53:07.130Z,4.84
2022-12-07T04:54:07.113Z,4.78
2022-12-07T04:55:07.104Z,4.77
2022-12-07T04:56:07.089Z,4.75
2022-12-07T04:57:07.076Z,4.73
2022-12-07T04:58:07.063Z,4.78
2022-12-07T04:59:07.051Z,4.84
2022-12-07T05:00:07.038Z,4.81
2022-12-07T05:01:07.153Z,4.81
2022-12-07T05:02:07.073Z,4.80
2022-12-07T05:03:07.001Z,4.77
2022-12-07T05:04:06.987Z,4.75
2022-12-07T05:05:07.023Z,4.77
2022-12-07T05:06:13.064Z,4.78
2022-12-07T05:07:06.950Z,4.81
2022-12-07T05:08:07.004Z,4.81
2022-12-07T05:09:06.924Z,4.80
2022-12-07T05:10:06.911Z,4.77
2022-12-07T05:11:06.901Z,4.80
2022-12-07T05:12:06.884Z,4.77
2022-12-07T05:13:06.873Z,4.75
2022-12-07T05:14:06.859Z,4.77
2022-12-07T05:15:06.849Z,4.73
2022-12-07T05:16:06.926Z,4.73
2022-12-07T05:17:06.828Z,4.80
2022-12-07T05:18:06.810Z,4.80
2022-12-07T05:19:06.798Z,4.78
2022-12-07T05:20:06.784Z,4.77
2022-12-07T05:21:06.796Z,4.69
2022-12-07T05:22:06.759Z,4.67
2022-12-07T05:23:06.747Z,4.67
2022-12-07T05:24:06.733Z,4.69
2022-12-07T05:25:06.723Z,4.63
2022-12-07T05:26:06.709Z,4.63
2022-12-07T05:27:06.700Z,4.62
2022-12-07T05:28:06.682Z,4.72
2022-12-07T05:29:06.671Z,4.67
2022-12-07T05:30:06.658Z,4.67
2022-12-07T05:31:06.670Z,4.65
2022-12-07T05:32:06.727Z,4.67
2022-12-07T05:33:06.623Z,4.69
2022-12-07T05:34:06.607Z,4.66
2022-12-07T05:35:06.595Z,4.63
2022-12-07T05:36:06.613Z,4.66
2022-12-07T05:37:06.594Z,4.65
2022-12-07T05:38:06.559Z,4.65
2022-12-07T05:39:06.549Z,4.62
2022-12-07T05:40:06.531Z,4.66
2022-12-07T05:41:06.519Z,4.69
2022-12-07T05:42:06.506Z,4.65
2022-12-07T05:43:06.495Z,4.63
2022-12-07T05:44:06.497Z,4.59
2022-12-07T05:45:06.469Z,4.62
2022-12-07T05:46:06.527Z,4.62
2022-12-07T05:47:06.443Z,4.66
2022-12-07T05:48:06.427Z,4.67
2022-12-07T05:49:06.418Z,4.62
2022-12-07T05:50:06.403Z,4.65
2022-12-07T05:51:06.391Z,4.69
2022-12-07T05:52:06.376Z,4.72
2022-12-07T05:53:06.394Z,4.69
2022-12-07T05:54:06.351Z,4.65
2022-12-07T05:55:06.340Z,4.66
2022-12-07T05:56:06.325Z,4.66
2022-12-07T05:57:06.316Z,4.66
2022-12-07T05:58:06.302Z,4.73
2022-12-07T05:59:06.293Z,4.67
2022-12-07T06:00:06.355Z,4.72
2022-12-07T06:01:06.263Z,4.72
2022-12-07T06:02:06.372Z,4.72
2022-12-07T06:03:06.371Z,4.67
2022-12-07T06:04:06.226Z,4.67
2022-12-07T06:05:06.212Z,4.69
2022-12-07T06:06:06.253Z,4.69
2022-12-07T06:07:06.188Z,4.69
2022-12-07T06:08:06.431Z,4.75
2022-12-07T06:09:06.190Z,4.77
2022-12-07T06:10:06.153Z,4.75
2022-12-07T06:11:06.137Z,4.80
2022-12-07T06:12:06.123Z,4.80
2022-12-07T06:13:06.111Z,4.81
2022-12-07T06:14:06.097Z,4.77
2022-12-07T06:15:06.086Z,4.78
2022-12-07T06:16:06.173Z,4.73
2022-12-07T06:17:06.135Z,4.72
2022-12-07T06:18:06.048Z,4.73
2022-12-07T06:19:06.039Z,4.75
2022-12-07T06:20:06.020Z,4.73
2022-12-07T06:21:06.008Z,4.72
2022-12-07T06:22:05.994Z,4.80
2022-12-07T06:23:05.985Z,4.80
2022-12-07T06:24:05.968Z,4.78
2022-12-07T06:25:08.777Z,4.83
2022-12-07T06:26:05.946Z,4.80
2022-12-07T06:27:05.931Z,4.80
2022-12-07T06:28:05.918Z,4.83
2022-12-07T06:29:05.909Z,4.83
2022-12-07T06:30:05.998Z,4.80
2022-12-07T06:31:10.878Z,4.78
2022-12-07T06:32:07.955Z,4.67
2022-12-07T06:33:05.858Z,4.70
2022-12-07T06:34:05.842Z,4.72
2022-12-07T06:35:05.829Z,4.75
2022-12-07T06:36:05.825Z,4.72
2022-12-07T06:37:05.804Z,4.75
2022-12-07T06:38:05.790Z,4.70
2022-12-07T06:39:05.783Z,4.70
2022-12-07T06:40:05.983Z,4.72
2022-12-07T06:41:05.779Z,4.75
2022-12-07T06:42:05.739Z,4.77
2022-12-07T06:43:05.728Z,4.78
2022-12-07T06:44:05.712Z,4.78
2022-12-07T06:45:05.700Z,4.70
2022-12-07T06:46:05.775Z,4.77
2022-12-07T06:47:38.929Z,4.80
2022-12-07T06:48:07.661Z,4.78
2022-12-07T06:49:05.651Z,4.73
2022-12-07T06:50:05.938Z,4.77
2022-12-07T06:51:05.624Z,4.77
2022-12-07T06:52:05.610Z,4.78
2022-12-07T06:53:05.600Z,4.75
2022-12-07T06:54:05.586Z,4.75
2022-12-07T06:55:05.573Z,4.80
2022-12-07T06:56:05.561Z,4.77
2022-12-07T06:57:05.570Z,4.73
2022-12-07T06:58:05.534Z,4.80
2022-12-07T06:59:05.531Z,4.78
2022-12-07T07:00:06.051Z,4.77
2022-12-07T07:01:05.523Z,4.78
2022-12-07T07:02:05.516Z,4.81
2022-12-07T07:03:05.472Z,4.80
2022-12-07T07:04:05.457Z,4.80
2022-12-07T07:05:05.449Z,4.78
2022-12-07T07:06:05.433Z,4.77
2022-12-07T07:07:05.421Z,4.77
2022-12-07T07:08:21.919Z,4.78
2022-12-07T07:09:07.466Z,4.80
2022-12-07T07:10:05.381Z,4.83
2022-12-07T07:11:05.373Z,4.81
2022-12-07T07:12:05.357Z,4.80
2022-12-07T07:13:05.368Z,4.78
2022-12-07T07:14:05.328Z,4.83
2022-12-07T07:15:05.317Z,4.87
2022-12-07T07:16:05.308Z,4.93
2022-12-07T07:17:05.353Z,4.85
2022-12-07T07:18:07.910Z,4.88
2022-12-07T07:19:05.267Z,4.87
2022-12-07T07:20:05.512Z,4.91
2022-12-07T07:21:05.243Z,4.90
2022-12-07T07:22:05.229Z,4.87
2022-12-07T07:23:05.225Z,4.93
2022-12-07T07:24:05.203Z,4.91
2022-12-07T07:25:05.193Z,4.90
2022-12-07T07:26:05.182Z,4.90
2022-12-07T07:27:05.168Z,4.84
2022-12-07T07:28:05.156Z,4.90
2022-12-07T07:29:05.163Z,4.85
2022-12-07T07:30:05.351Z,4.88
2022-12-07T07:31:05.190Z,4.88
2022-12-07T07:32:06.993Z,4.85
2022-12-07T07:33:05.090Z,4.85
2022-12-07T07:34:05.079Z,4.88
2022-12-07T07:35:05.063Z,4.84
2022-12-07T07:36:05.052Z,4.91
2022-12-07T07:37:05.043Z,4.85
2022-12-07T07:38:05.029Z,4.87
2022-12-07T07:39:05.015Z,4.90
2022-12-07T07:40:05.357Z,4.90
2022-12-07T07:41:04.987Z,4.87
2022-12-07T07:42:04.976Z,4.84
2022-12-07T07:43:04.965Z,4.87
2022-12-07T07:44:04.956Z,4.88
2022-12-07T07:45:04.963Z,4.93
2022-12-07T07:46:04.983Z,4.90
2022-12-07T07:47:04.917Z,4.90
2022-12-07T07:48:04.901Z,4.85
2022-12-07T07:49:04.887Z,4.91
2022-12-07T07:50:05.155Z,4.95
2022-12-07T07:51:04.864Z,4.95
2022-12-07T07:52:04.853Z,4.96
2022-12-07T07:53:04.836Z,4.95
2022-12-07T07:54:04.825Z,4.96
2022-12-07T07:55:04.815Z,4.95
2022-12-07T07:56:04.802Z,4.98
2022-12-07T07:57:04.784Z,4.96
2022-12-07T07:58:04.774Z,4.96
2022-12-07T07:59:04.761Z,4.88
2022-12-07T08:00:05.082Z,4.90
2022-12-07T08:01:04.837Z,4.91
2022-12-07T08:03:04.710Z,4.90
2022-12-07T08:04:04.699Z,4.95
2022-12-07T08:05:04.752Z,4.96
2022-12-07T08:06:04.673Z,4.88
2022-12-07T08:07:04.660Z,4.91
2022-12-07T08:08:04.724Z,4.88
2022-12-07T08:09:04.634Z,4.91
2022-12-07T08:10:05.037Z,4.99
2022-12-07T08:11:04.608Z,5.02
2022-12-07T08:12:04.596Z,5.03
2022-12-07T08:13:04.582Z,5.01
2022-12-07T08:14:04.573Z,5.02
2022-12-07T08:15:04.556Z,5.05
2022-12-07T08:16:04.606Z,5.06
2022-12-07T08:17:04.557Z,5.05
2022-12-07T08:18:04.522Z,5.08
2022-12-07T08:19:04.509Z,5.09
2022-12-07T08:20:04.978Z,5.05
2022-12-07T08:21:04.480Z,5.05
2022-12-07T08:22:04.469Z,5.03
2022-12-07T08:23:04.454Z,4.99
2022-12-07T08:24:04.442Z,5.03
2022-12-07T08:25:04.430Z,5.03
2022-12-07T08:26:04.418Z,5.02
2022-12-07T08:27:04.406Z,4.98
2022-12-07T08:28:04.392Z,5.06
2022-12-07T08:29:04.386Z,5.17
2022-12-07T08:30:04.784Z,5.21
2022-12-07T08:31:04.501Z,5.23
2022-12-07T08:32:09.403Z,5.23
2022-12-07T08:33:04.353Z,5.16
2022-12-07T08:34:04.323Z,5.19
2022-12-07T08:35:04.305Z,5.23
2022-12-07T08:36:04.291Z,5.27
2022-12-07T08:37:04.285Z,5.26
2022-12-07T08:38:04.263Z,5.34
2022-12-07T08:40:04.684Z,5.30
2022-12-07T08:41:04.224Z,5.30
2022-12-07T08:42:04.213Z,5.24
2022-12-07T08:43:04.199Z,5.26
2022-12-07T08:44:04.220Z,5.29
2022-12-07T08:45:04.178Z,5.89
2022-12-07T08:46:04.198Z,6.37
2022-12-07T08:47:04.147Z,6.68
2022-12-07T08:48:04.137Z,7.39
2022-12-07T08:49:04.147Z,8.14
2022-12-07T08:50:04.404Z,8.73
2022-12-07T08:51:04.095Z,9.19
2022-12-07T08:52:04.083Z,9.04
2022-12-07T08:53:04.071Z,8.70
2022-12-07T08:54:04.059Z,8.74
2022-12-07T08:55:04.042Z,8.83
2022-12-07T08:56:04.031Z,9.31
2022-12-07T08:57:04.018Z,9.56
2022-12-07T08:58:04.009Z,9.77
2022-12-07T08:59:03.991Z,9.35
2022-12-07T09:00:04.491Z,9.23
2022-12-07T09:01:03.965Z,9.73
2022-12-07T09:02:04.056Z,9.79
2022-12-07T09:03:03.939Z,10.04
2022-12-07T09:04:03.929Z,9.93
2022-12-07T09:05:03.936Z,9.27
2022-12-07T09:06:03.992Z,9.22
2022-12-07T09:07:03.938Z,8.79
2022-12-07T09:08:03.953Z,9.27
2022-12-07T09:09:03.866Z,9.89
2022-12-07T09:10:04.175Z,10.09
2022-12-07T09:11:03.838Z,9.79
2022-12-07T09:12:03.828Z,9.37
2022-12-07T09:13:03.811Z,8.83
2022-12-07T09:14:03.799Z,8.06
2022-12-07T09:15:03.791Z,7.73
2022-12-07T09:16:03.845Z,7.50
2022-12-07T09:17:03.761Z,7.21
2022-12-07T09:18:03.751Z,6.90
2022-12-07T09:19:03.733Z,6.76
2022-12-07T09:20:04.040Z,6.66
2022-12-07T09:21:03.744Z,6.45
2022-12-07T09:22:03.698Z,6.35
2022-12-07T09:23:03.681Z,6.21
2022-12-07T09:24:03.669Z,6.24
2022-12-07T09:25:03.655Z,6.29
2022-12-07T09:26:08.883Z,6.29
2022-12-07T09:27:03.628Z,6.27
2022-12-07T09:28:03.619Z,6.29
2022-12-07T09:29:03.602Z,6.35
2022-12-07T09:30:03.964Z,6.43
2022-12-07T09:31:27.722Z,6.50
2022-12-07T09:32:11.363Z,6.55
2022-12-07T09:33:03.560Z,6.63
2022-12-07T09:34:03.636Z,6.63
2022-12-07T09:35:03.524Z,6.57
2022-12-07T09:36:03.510Z,6.40
2022-12-07T09:37:03.520Z,6.48
2022-12-07T09:38:03.483Z,6.37
2022-12-07T09:39:03.475Z,6.32
2022-12-07T09:40:03.859Z,6.33
2022-12-07T09:41:03.443Z,6.36
2022-12-07T09:42:03.430Z,6.40
2022-12-07T09:43:03.553Z,6.35
2022-12-07T09:44:03.405Z,6.43
2022-12-07T09:45:03.391Z,6.42
2022-12-07T09:46:03.406Z,6.54
2022-12-07T09:47:03.367Z,6.79
2022-12-07T09:48:03.357Z,6.90
2022-12-07T09:49:03.340Z,6.99
2022-12-07T09:50:03.644Z,7.10
2022-12-07T09:51:03.316Z,7.07
2022-12-07T09:52:03.306Z,6.94
2022-12-07T09:53:03.330Z,6.87
2022-12-07T09:54:03.280Z,6.66
2022-12-07T09:55:03.446Z,6.66
2022-12-07T09:56:03.253Z,6.68
2022-12-07T09:57:03.239Z,6.73
2022-12-07T09:58:03.228Z,6.70
2022-12-07T09:59:03.216Z,6.63
2022-12-07T10:00:03.204Z,6.54
2022-12-07T10:01:03.189Z,6.58
2022-12-07T10:02:03.317Z,6.61
2022-12-07T10:03:03.175Z,6.70
2022-12-07T10:04:03.154Z,6.73
2022-12-07T10:05:03.571Z,6.79
2022-12-07T10:06:03.126Z,6.75
2022-12-07T10:07:03.115Z,6.69
2022-12-07T10:08:03.189Z,6.58
2022-12-07T10:09:03.114Z,6.61
2022-12-07T10:10:03.078Z,6.58
2022-12-07T10:11:03.064Z,6.55
2022-12-07T10:12:03.053Z,6.54
2022-12-07T10:13:03.040Z,6.53
2022-12-07T10:14:03.026Z,6.66
2022-12-07T10:15:07.661Z,6.78
2022-12-07T10:16:06.860Z,6.69
2022-12-07T10:17:02.989Z,6.66
2022-12-07T10:18:02.977Z,6.69
2022-12-07T10:19:02.964Z,6.73
2022-12-07T10:20:02.953Z,6.90
2022-12-07T10:21:02.942Z,6.95
2022-12-07T10:22:02.929Z,6.98
2022-12-07T10:23:02.932Z,6.90
2022-12-07T10:24:02.903Z,6.94
2022-12-07T10:25:03.380Z,6.95
2022-12-07T10:26:02.879Z,6.97
2022-12-07T10:27:02.866Z,7.02
2022-12-07T10:28:02.853Z,7.05
2022-12-07T10:29:02.840Z,6.99
2022-12-07T10:30:02.833Z,7.02
2022-12-07T10:31:02.882Z,7.03
2022-12-07T10:32:02.803Z,6.97
2022-12-07T10:33:02.790Z,6.90
2022-12-07T10:34:02.779Z,6.88
2022-12-07T10:35:03.162Z,6.94
2022-12-07T10:36:02.757Z,6.91
2022-12-07T10:37:02.739Z,6.97
2022-12-07T10:38:02.733Z,7.09
2022-12-07T10:39:02.712Z,7.12
2022-12-07T10:40:02.707Z,7.17
2022-12-07T10:41:02.709Z,7.17
2022-12-07T10:42:02.679Z,7.20
2022-12-07T10:43:02.660Z,7.12
2022-12-07T10:44:02.649Z,7.32
2022-12-07T10:45:03.132Z,7.43
2022-12-07T10:46:04.478Z,7.55
2022-12-07T10:47:02.677Z,7.88
2022-12-07T10:48:02.597Z,8.06
2022-12-07T10:49:02.582Z,8.15
2022-12-07T10:50:02.573Z,7.99
2022-12-07T10:51:02.557Z,8.03
2022-12-07T10:52:02.549Z,7.82
2022-12-07T10:53:02.530Z,7.49
2022-12-07T10:54:02.521Z,7.46
2022-12-07T10:55:02.899Z,7.42
2022-12-07T10:56:02.494Z,7.49
2022-12-07T10:57:02.504Z,7.57
2022-12-07T10:58:02.468Z,7.57
2022-12-07T10:59:02.454Z,7.39
2022-12-07T11:00:02.442Z,7.39
2022-12-07T11:01:02.549Z,7.61
2022-12-07T11:02:02.507Z,7.42
2022-12-07T11:03:02.403Z,7.50
2022-12-07T11:04:02.390Z,7.63
2022-12-07T11:05:02.732Z,7.81
2022-12-07T11:06:02.366Z,7.85
2022-12-07T11:07:02.360Z,7.97
2022-12-07T11:08:02.366Z,8.17
2022-12-07T11:09:02.323Z,8.27
2022-12-07T11:10:10.511Z,8.17
2022-12-07T11:11:04.299Z,8.04
2022-12-07T11:12:02.295Z,7.78
2022-12-07T11:13:02.327Z,7.49
2022-12-07T11:14:02.262Z,7.60
2022-12-07T11:15:02.248Z,7.49
2022-12-07T11:16:02.315Z,7.31
2022-12-07T11:17:02.222Z,7.34
2022-12-07T11:18:02.208Z,7.23
2022-12-07T11:19:02.193Z,7.25
2022-12-07T11:20:02.491Z,7.13
2022-12-07T11:21:02.167Z,7.02
2022-12-07T11:22:02.156Z,6.76
2022-12-07T11:23:02.142Z,6.68
2022-12-07T11:24:02.134Z,6.54
2022-12-07T11:25:02.118Z,6.60
2022-12-07T11:26:02.107Z,6.55
2022-12-07T11:27:02.092Z,6.61
2022-12-07T11:28:02.081Z,6.61
2022-12-07T11:29:02.092Z,6.72
2022-12-07T11:30:02.561Z,6.70
2022-12-07T11:31:02.045Z,6.78
2022-12-07T11:32:02.125Z,6.75
2022-12-07T11:33:02.015Z,6.80
2022-12-07T11:34:02.005Z,6.91
2022-12-07T11:35:02.002Z,6.87
2022-12-07T11:36:01.981Z,6.86
2022-12-07T11:37:01.966Z,6.87
2022-12-07T11:38:01.960Z,6.91
2022-12-07T11:39:01.942Z,6.88
2022-12-07T11:40:02.233Z,6.94
2022-12-07T11:41:01.921Z,6.75
2022-12-07T11:42:01.906Z,6.60
2022-12-07T11:43:01.890Z,6.58
2022-12-07T11:44:01.881Z,6.48
2022-12-07T11:45:01.894Z,6.58
2022-12-07T11:46:01.855Z,6.55
2022-12-07T11:47:01.924Z,6.58
2022-12-07T11:48:01.828Z,6.72
2022-12-07T11:49:01.817Z,6.78
2022-12-07T11:50:01.805Z,6.94
2022-12-07T11:51:01.804Z,7.10
2022-12-07T11:52:01.779Z,7.23
2022-12-07T11:53:01.767Z,7.28
2022-12-07T11:54:01.757Z,7.31
2022-12-07T11:55:01.744Z,7.28
2022-12-07T11:56:01.727Z,7.09
2022-12-07T11:57:01.716Z,6.95
2022-12-07T11:58:01.703Z,6.98
2022-12-07T11:59:01.691Z,6.84
2022-12-07T12:00:02.002Z,6.66
2022-12-07T12:01:01.694Z,6.70
2022-12-07T12:02:01.715Z,6.68
2022-12-07T12:03:01.724Z,6.70
2022-12-07T12:04:01.627Z,6.72
2022-12-07T12:05:01.616Z,6.72
2022-12-07T12:06:01.601Z,6.72
2022-12-07T12:10:02.122Z,6.58
2022-12-07T12:11:01.548Z,6.48
2022-12-07T12:15:02.012Z,6.18
2022-12-07T12:16:01.529Z,6.22
2022-12-07T12:17:01.490Z,6.19
2022-12-07T12:18:01.447Z,6.27
2022-12-07T12:19:01.437Z,6.24
2022-12-07T12:20:01.424Z,6.33
2022-12-07T12:21:01.412Z,6.36
2022-12-07T12:22:01.397Z,6.33
2022-12-07T12:23:01.384Z,6.37
2022-12-07T12:24:01.376Z,6.48
2022-12-07T12:25:01.663Z,6.19
2022-12-07T12:26:01.400Z,6.14
2022-12-07T12:27:01.333Z,6.03
2022-12-07T12:28:01.323Z,5.91
2022-12-07T12:29:01.309Z,5.94
2022-12-07T12:30:01.294Z,5.90
2022-12-07T12:31:01.282Z,5.94
2022-12-07T12:32:01.326Z,6.01
2022-12-07T12:33:01.283Z,5.99
2022-12-07T12:34:01.242Z,5.99
2022-12-07T12:35:01.230Z,5.96
2022-12-07T12:36:01.245Z,6.00
2022-12-07T12:37:01.205Z,6.04
2022-12-07T12:38:01.192Z,6.01
2022-12-07T12:39:01.180Z,6.03
2022-12-07T12:40:01.166Z,6.08
2022-12-07T12:41:01.155Z,6.32
2022-12-07T12:42:01.139Z,6.36
2022-12-07T12:43:01.127Z,6.33
2022-12-07T12:44:01.114Z,6.47
2022-12-07T12:45:01.481Z,6.65
2022-12-07T12:46:01.127Z,6.75
2022-12-07T12:47:01.084Z,6.76
2022-12-07T12:48:01.065Z,6.72
2022-12-07T12:49:01.077Z,6.86
2022-12-07T12:50:01.035Z,6.87
2022-12-07T12:51:01.025Z,6.95
2022-12-07T12:52:01.013Z,6.88
2022-12-07T12:53:01.000Z,6.60
2022-12-07T12:54:00.984Z,6.53
2022-12-07T12:55:01.380Z,6.42
2022-12-07T12:56:00.959Z,6.14
2022-12-07T12:57:00.945Z,6.12
2022-12-07T12:58:00.932Z,6.26
2022-12-07T12:59:00.921Z,6.35
2022-12-07T13:00:00.908Z,6.29
2022-12-07T13:01:00.949Z,6.22
2022-12-07T13:02:00.986Z,6.17
2022-12-07T13:03:00.870Z,6.18
2022-12-07T13:04:00.855Z,6.21
2022-12-07T13:05:01.477Z,6.27
2022-12-07T13:06:00.831Z,6.19
2022-12-07T13:07:00.819Z,6.09
2022-12-07T13:08:00.872Z,6.03
2022-12-07T13:09:00.794Z,6.03
2022-12-07T13:10:00.778Z,5.97
2022-12-07T13:11:00.767Z,6.01
2022-12-07T13:12:00.787Z,6.12
2022-12-07T13:13:00.741Z,6.26
2022-12-07T13:14:00.727Z,7.16
2022-12-07T13:15:01.242Z,8.41
2022-12-07T13:16:00.701Z,9.28
2022-12-07T13:17:00.768Z,9.70
2022-12-07T13:18:00.676Z,10.54
2022-12-07T13:19:00.663Z,11.17
2022-12-07T13:20:00.664Z,11.05
2022-12-07T13:21:00.664Z,11.06
2022-12-07T13:22:00.622Z,10.75
2022-12-07T13:23:00.610Z,9.97
2022-12-07T13:24:00.597Z,9.19
2022-12-07T13:25:01.147Z,8.58
2022-12-07T13:26:00.571Z,7.84
2022-12-07T13:27:00.563Z,7.48